sensor_id;sensor_type;location;lat;lon;timestamp;pressure;altitude;pressure_sealevel;temperature;humidity
51460;BME280;37534;39.772;2.718;2023-10-13T00:02:11;101719.41;;;18.35;100.00
51460;BME280;37534;39.772;2.718;2023-10-13T00:04:36;101709.59;;;18.20;100.00
51460;BME280;37534;39.772;2.718;2023-10-13T00:07:03;101775.97;;;18.57;100.00
51460;BME280;37534;39.772;2.718;2023-10-13T00:09:30;101741.97;;;18.36;100.00
51460;BME280;37534;39.772;2.718;2023-10-13T00:12:01;101731.09;;;18.27;100.00
51460;BME280;37534;39.772;2.718;2023-10-13T00:14:29;101775.16;;;18.75;100.00
51460;BME280;37534;39.772;2.718;2023-10-13T00:17:05;101748.34;;;18.51;100.00
51460;BME280;37534;39.772;2.718;2023-10-13T00:19:41;101758.13;;;18.46;100.00
51460;BME280;37534;39.772;2.718;2023-10-13T00:22:15;101772.81;;;18.49;100.00
51460;BME280;37534;39.772;2.718;2023-10-13T00:24:45;101740.75;;;18.24;100.00
51460;BME280;37534;39.772;2.718;2023-10-13T00:27:11;101770.59;;;18.39;100.00
51460;BME280;37534;39.772;2.718;2023-10-13T00:29:53;101775.94;;;18.36;100.00
51460;BME280;37534;39.772;2.718;2023-10-13T00:32:38;101743.56;;;18.20;100.00
51460;BME280;37534;39.772;2.718;2023-10-13T00:35:06;101736.44;;;18.23;100.00
51460;BME280;37534;39.772;2.718;2023-10-13T00:37:32;101737.66;;;18.15;100.00
51460;BME280;37534;39.772;2.718;2023-10-13T00:40:07;101721.34;;;18.10;100.00
51460;BME280;37534;39.772;2.718;2023-10-13T00:42:42;101774.28;;;18.35;100.00
51460;BME280;37534;39.772;2.718;2023-10-13T00:45:17;101773.34;;;18.36;100.00
51460;BME280;37534;39.772;2.718;2023-10-13T00:47:44;101742.44;;;18.05;100.00
51460;BME280;37534;39.772;2.718;2023-10-13T00:50:22;101758.56;;;18.15;100.00
51460;BME280;37534;39.772;2.718;2023-10-13T00:52:49;101764.84;;;18.31;100.00
51460;BME280;37534;39.772;2.718;2023-10-13T00:55:19;101764.50;;;18.18;100.00
51460;BME280;37534;39.772;2.718;2023-10-13T00:57:57;101764.69;;;18.14;100.00
51460;BME280;37534;39.772;2.718;2023-10-13T01:00:28;101758.81;;;18.09;100.00
51460;BME280;37534;39.772;2.718;2023-10-13T01:02:54;101767.78;;;18.23;100.00
51460;BME280;37534;39.772;2.718;2023-10-13T01:05:22;101791.66;;;18.57;100.00
51460;BME280;37534;39.772;2.718;2023-10-13T01:07:49;101769.94;;;18.34;100.00
51460;BME280;37534;39.772;2.718;2023-10-13T01:10:18;101761.66;;;18.24;100.00
51460;BME280;37534;39.772;2.718;2023-10-13T01:12:44;101749.94;;;18.13;100.00
51460;BME280;37534;39.772;2.718;2023-10-13T01:15:11;101763.66;;;18.18;100.00
51460;BME280;37534;39.772;2.718;2023-10-13T01:17:40;101751.09;;;18.05;100.00
51460;BME280;37534;39.772;2.718;2023-10-13T01:20:09;101733.06;;;17.99;100.00
51460;BME280;37534;39.772;2.718;2023-10-13T01:22:36;101691.13;;;17.82;100.00
51460;BME280;37534;39.772;2.718;2023-10-13T01:25:03;101751.84;;;18.30;100.00
51460;BME280;37534;39.772;2.718;2023-10-13T01:27:38;101727.22;;;18.15;100.00
51460;BME280;37534;39.772;2.718;2023-10-13T01:30:04;101725.50;;;18.14;100.00
51460;BME280;37534;39.772;2.718;2023-10-13T01:32:35;101724.16;;;18.26;100.00
51460;BME280;37534;39.772;2.718;2023-10-13T01:35:10;101733.03;;;18.21;100.00
51460;BME280;37534;39.772;2.718;2023-10-13T01:37:36;101740.66;;;18.26;100.00
51460;BME280;37534;39.772;2.718;2023-10-13T01:40:02;101727.94;;;18.18;100.00
51460;BME280;37534;39.772;2.718;2023-10-13T01:42:29;101688.81;;;17.96;100.00
51460;BME280;37534;39.772;2.718;2023-10-13T01:44:56;101729.50;;;18.22;100.00
51460;BME280;37534;39.772;2.718;2023-10-13T01:47:31;101696.38;;;18.02;100.00
51460;BME280;37534;39.772;2.718;2023-10-13T01:49:58;101697.16;;;18.04;100.00
51460;BME280;37534;39.772;2.718;2023-10-13T01:52:32;101705.16;;;18.01;100.00
51460;BME280;37534;39.772;2.718;2023-10-13T01:54:58;101704.22;;;18.02;100.00
51460;BME280;37534;39.772;2.718;2023-10-13T01:57:26;101709.25;;;18.07;100.00
51460;BME280;37534;39.772;2.718;2023-10-13T01:59:53;101699.00;;;18.02;100.00
51460;BME280;37534;39.772;2.718;2023-10-13T02:02:20;101657.59;;;17.71;100.00
51460;BME280;37534;39.772;2.718;2023-10-13T02:04:55;101706.84;;;18.02;100.00
51460;BME280;37534;39.772;2.718;2023-10-13T02:07:27;101713.50;;;18.10;100.00
51460;BME280;37534;39.772;2.718;2023-10-13T02:09:56;101703.56;;;17.97;100.00
51460;BME280;37534;39.772;2.718;2023-10-13T02:12:22;101720.66;;;18.04;100.00
51460;BME280;37534;39.772;2.718;2023-10-13T02:15:03;101675.09;;;17.69;100.00
51460;BME280;37534;39.772;2.718;2023-10-13T02:17:30;101697.00;;;17.87;100.00
51460;BME280;37534;39.772;2.718;2023-10-13T02:20:09;101699.53;;;18.11;100.00
51460;BME280;37534;39.772;2.718;2023-10-13T02:22:40;101660.22;;;17.93;100.00
51460;BME280;37534;39.772;2.718;2023-10-13T02:25:15;101652.44;;;17.92;100.00
51460;BME280;37534;39.772;2.718;2023-10-13T02:27:43;101664.50;;;17.94;100.00
51460;BME280;37534;39.772;2.718;2023-10-13T02:30:09;101666.22;;;17.95;100.00
51460;BME280;37534;39.772;2.718;2023-10-13T02:32:40;101682.78;;;17.94;100.00
51460;BME280;37534;39.772;2.718;2023-10-13T02:35:09;101658.22;;;17.78;100.00
51460;BME280;37534;39.772;2.718;2023-10-13T02:37:41;101679.66;;;17.86;100.00
51460;BME280;37534;39.772;2.718;2023-10-13T02:40:19;101644.22;;;17.58;100.00
51460;BME280;37534;39.772;2.718;2023-10-13T02:42:48;101678.19;;;17.79;100.00
51460;BME280;37534;39.772;2.718;2023-10-13T02:45:14;101645.91;;;17.59;100.00
51460;BME280;37534;39.772;2.718;2023-10-13T02:47:40;101669.81;;;17.71;100.00
51460;BME280;37534;39.772;2.718;2023-10-13T02:50:08;101656.25;;;17.62;100.00
51460;BME280;37534;39.772;2.718;2023-10-13T03:22:42;101677.19;;;17.61;100.00
51460;BME280;37534;39.772;2.718;2023-10-13T03:25:14;101647.69;;;17.37;100.00
51460;BME280;37534;39.772;2.718;2023-10-13T03:27:57;101673.13;;;17.54;100.00
51460;BME280;37534;39.772;2.718;2023-10-13T03:30:22;101642.53;;;17.35;100.00
51460;BME280;37534;39.772;2.718;2023-10-13T03:32:55;101657.63;;;17.49;100.00
51460;BME280;37534;39.772;2.718;2023-10-13T03:35:22;101663.75;;;17.48;100.00
51460;BME280;37534;39.772;2.718;2023-10-13T03:37:54;101656.84;;;17.47;100.00
51460;BME280;37534;39.772;2.718;2023-10-13T03:40:21;101680.22;;;17.50;100.00
51460;BME280;37534;39.772;2.718;2023-10-13T03:42:47;101673.59;;;17.41;100.00
51460;BME280;37534;39.772;2.718;2023-10-13T03:45:44;101683.41;;;17.35;100.00
51460;BME280;37534;39.772;2.718;2023-10-13T03:48:17;101641.06;;;17.06;100.00
51460;BME280;37534;39.772;2.718;2023-10-13T03:51:01;101667.34;;;17.23;100.00
51460;BME280;37534;39.772;2.718;2023-10-13T03:53:37;101661.69;;;17.12;100.00
51460;BME280;37534;39.772;2.718;2023-10-13T03:56:15;101631.22;;;16.90;100.00
51460;BME280;37534;39.772;2.718;2023-10-13T03:58:49;101660.53;;;17.19;100.00
51460;BME280;37534;39.772;2.718;2023-10-13T04:01:14;101622.34;;;17.18;100.00
51460;BME280;37534;39.772;2.718;2023-10-13T04:03:42;101659.94;;;17.35;100.00
51460;BME280;37534;39.772;2.718;2023-10-13T04:06:30;101660.47;;;17.21;100.00
51460;BME280;37534;39.772;2.718;2023-10-13T06:09:31;101562.69;;;15.92;100.00
51460;BME280;37534;39.772;2.718;2023-10-13T06:12:15;101627.03;;;16.38;100.00
51460;BME280;37534;39.772;2.718;2023-10-13T06:14:59;101634.41;;;16.50;100.00
51460;BME280;37534;39.772;2.718;2023-10-13T06:17:43;101618.38;;;16.37;100.00
51460;BME280;37534;39.772;2.718;2023-10-13T06:20:27;101607.59;;;16.23;100.00
51460;BME280;37534;39.772;2.718;2023-10-13T06:23:11;101640.69;;;16.44;100.00
51460;BME280;37534;39.772;2.718;2023-10-13T06:25:55;101634.78;;;16.39;100.00
51460;BME280;37534;39.772;2.718;2023-10-13T06:28:39;101623.59;;;16.37;100.00
51460;BME280;37534;39.772;2.718;2023-10-13T06:31:09;101634.19;;;16.56;100.00
51460;BME280;37534;39.772;2.718;2023-10-13T06:33:47;101660.13;;;16.84;100.00
51460;BME280;37534;39.772;2.718;2023-10-13T06:36:13;101632.72;;;16.72;100.00
51460;BME280;37534;39.772;2.718;2023-10-13T06:38:39;101614.63;;;16.68;100.00
51460;BME280;37534;39.772;2.718;2023-10-13T06:41:06;101650.25;;;16.92;100.00
51460;BME280;37534;39.772;2.718;2023-10-13T06:43:36;101632.34;;;16.83;100.00
51460;BME280;37534;39.772;2.718;2023-10-13T06:46:12;101626.44;;;16.78;100.00
51460;BME280;37534;39.772;2.718;2023-10-13T06:48:49;101647.59;;;16.94;100.00
51460;BME280;37534;39.772;2.718;2023-10-13T06:51:18;101650.97;;;16.96;100.00
51460;BME280;37534;39.772;2.718;2023-10-13T06:53:47;101581.19;;;16.57;100.00
51460;BME280;37534;39.772;2.718;2023-10-13T06:56:14;101647.59;;;16.94;100.00
51460;BME280;37534;39.772;2.718;2023-10-13T06:58:47;101638.56;;;17.03;100.00
51460;BME280;37534;39.772;2.718;2023-10-13T07:01:13;101643.88;;;17.00;100.00
51460;BME280;37534;39.772;2.718;2023-10-13T07:03:42;101641.69;;;17.13;100.00
51460;BME280;37534;39.772;2.718;2023-10-13T07:06:07;101666.16;;;17.32;100.00
51460;BME280;37534;39.772;2.718;2023-10-13T07:08:37;101679.53;;;17.45;100.00
51460;BME280;37534;39.772;2.718;2023-10-13T07:11:03;101640.34;;;17.46;100.00
51460;BME280;37534;39.772;2.718;2023-10-13T07:13:34;101664.94;;;18.05;100.00
51460;BME280;37534;39.772;2.718;2023-10-13T07:16:08;101685.00;;;18.65;100.00
51460;BME280;37534;39.772;2.718;2023-10-13T07:18:37;101667.28;;;19.29;100.00
51460;BME280;37534;39.772;2.718;2023-10-13T07:21:10;101657.06;;;20.30;100.00
51460;BME280;37534;39.772;2.718;2023-10-13T07:23:37;101632.91;;;21.22;100.00
51460;BME280;37534;39.772;2.718;2023-10-13T07:26:05;101684.25;;;22.05;100.00
51460;BME280;37534;39.772;2.718;2023-10-13T07:28:32;101705.53;;;23.31;100.00
51460;BME280;37534;39.772;2.718;2023-10-13T07:31:02;101700.91;;;23.34;100.00
51460;BME280;37534;39.772;2.718;2023-10-13T07:33:28;101708.16;;;23.16;100.00
51460;BME280;37534;39.772;2.718;2023-10-13T07:36:04;101693.38;;;22.58;100.00
51460;BME280;37534;39.772;2.718;2023-10-13T07:38:44;101697.63;;;22.16;100.00
51460;BME280;37534;39.772;2.718;2023-10-13T07:41:14;101691.97;;;22.81;100.00
51460;BME280;37534;39.772;2.718;2023-10-13T07:43:42;101710.94;;;24.22;100.00
51460;BME280;37534;39.772;2.718;2023-10-13T07:46:08;101688.56;;;25.53;100.00
51460;BME280;37534;39.772;2.718;2023-10-13T07:48:41;101707.50;;;27.20;96.87
51460;BME280;37534;39.772;2.718;2023-10-13T07:51:11;101742.06;;;28.78;87.64
51460;BME280;37534;39.772;2.718;2023-10-13T07:53:45;101737.91;;;29.94;76.36
51460;BME280;37534;39.772;2.718;2023-10-13T07:56:14;101729.75;;;30.90;70.16
51460;BME280;37534;39.772;2.718;2023-10-13T07:58:44;101747.50;;;31.99;65.39
51460;BME280;37534;39.772;2.718;2023-10-13T08:01:26;101745.38;;;32.21;55.26
51460;BME280;37534;39.772;2.718;2023-10-13T08:03:52;101740.28;;;32.70;52.37
51460;BME280;37534;39.772;2.718;2023-10-13T08:06:44;101723.19;;;33.06;51.77
51460;BME280;37534;39.772;2.718;2023-10-13T08:09:10;101745.75;;;33.11;53.13
51460;BME280;37534;39.772;2.718;2023-10-13T08:11:55;101758.22;;;33.53;49.65
51460;BME280;37534;39.772;2.718;2023-10-13T08:14:21;101766.91;;;33.56;49.98
51460;BME280;37534;39.772;2.718;2023-10-13T08:16:54;101744.38;;;33.91;49.54
51460;BME280;37534;39.772;2.718;2023-10-13T08:21:53;101773.16;;;34.78;46.58
51460;BME280;37534;39.772;2.718;2023-10-13T08:24:23;101769.59;;;35.25;44.71
51460;BME280;37534;39.772;2.718;2023-10-13T10:49:53;101699.41;;;43.88;30.28
51460;BME280;37534;39.772;2.718;2023-10-13T10:52:18;101715.16;;;44.67;29.96
51460;BME280;37534;39.772;2.718;2023-10-13T10:54:44;101734.22;;;44.84;30.18
51460;BME280;37534;39.772;2.718;2023-10-13T10:57:16;101709.22;;;44.70;29.77
51460;BME280;37534;39.772;2.718;2023-10-13T10:59:43;101719.78;;;44.26;30.02
51460;BME280;37534;39.772;2.718;2023-10-13T11:02:10;101715.75;;;44.29;30.07
51460;BME280;37534;39.772;2.718;2023-10-13T11:04:41;101717.72;;;44.91;29.51
51460;BME280;37534;39.772;2.718;2023-10-13T11:07:25;101715.72;;;43.88;30.24
51460;BME280;37534;39.772;2.718;2023-10-13T11:09:51;101671.16;;;43.89;30.13
51460;BME280;37534;39.772;2.718;2023-10-13T11:12:32;101692.88;;;44.13;30.06
51460;BME280;37534;39.772;2.718;2023-10-13T11:18:30;101706.00;;;44.45;29.98
51460;BME280;37534;39.772;2.718;2023-10-13T11:21:00;101708.81;;;43.97;30.22
51460;BME280;37534;39.772;2.718;2023-10-13T11:23:27;101710.91;;;44.31;29.26
51460;BME280;37534;39.772;2.718;2023-10-13T11:25:57;101689.19;;;44.48;29.97
51460;BME280;37534;39.772;2.718;2023-10-13T11:28:24;101704.09;;;44.16;29.82
51460;BME280;37534;39.772;2.718;2023-10-13T11:30:58;101658.41;;;44.47;29.21
51460;BME280;37534;39.772;2.718;2023-10-13T11:33:44;101689.59;;;43.87;30.45
51460;BME280;37534;39.772;2.718;2023-10-13T11:36:14;101686.81;;;44.11;30.49
51460;BME280;37534;39.772;2.718;2023-10-13T11:38:44;101655.69;;;43.78;30.21
51460;BME280;37534;39.772;2.718;2023-10-13T11:41:13;101675.44;;;43.85;30.05
51460;BME280;37534;39.772;2.718;2023-10-13T11:43:47;101662.69;;;43.26;30.74
51460;BME280;37534;39.772;2.718;2023-10-13T11:46:23;101684.88;;;43.35;31.40
51460;BME280;37534;39.772;2.718;2023-10-13T11:49:02;101664.31;;;43.63;31.49
51460;BME280;37534;39.772;2.718;2023-10-13T11:51:43;101689.59;;;43.16;31.80
51460;BME280;37534;39.772;2.718;2023-10-13T11:54:15;101673.34;;;41.88;33.44
51460;BME280;37534;39.772;2.718;2023-10-13T11:56:43;101637.44;;;41.31;33.95
51460;BME280;37534;39.772;2.718;2023-10-13T11:59:09;101630.28;;;41.98;33.69
51460;BME280;37534;39.772;2.718;2023-10-13T12:04:27;101665.88;;;42.81;33.02
51460;BME280;37534;39.772;2.718;2023-10-13T12:07:11;101658.19;;;43.20;32.10
51460;BME280;37534;39.772;2.718;2023-10-13T12:09:44;101637.75;;;43.06;32.46
51460;BME280;37534;39.772;2.718;2023-10-13T12:12:26;101659.97;;;42.42;32.93
51460;BME280;37534;39.772;2.718;2023-10-13T12:14:53;101634.44;;;40.57;35.37
51460;BME280;37534;39.772;2.718;2023-10-13T12:19:54;101608.56;;;40.36;35.82
51460;BME280;37534;39.772;2.718;2023-10-13T12:22:20;101655.75;;;40.72;35.77
51460;BME280;37534;39.772;2.718;2023-10-13T12:25:01;101616.69;;;40.67;35.73
51460;BME280;37534;39.772;2.718;2023-10-13T12:27:30;101617.66;;;41.30;35.35
51460;BME280;37534;39.772;2.718;2023-10-13T12:30:11;101640.25;;;40.92;35.57
51460;BME280;37534;39.772;2.718;2023-10-13T12:32:40;101644.88;;;42.16;33.69
51460;BME280;37534;39.772;2.718;2023-10-13T12:35:10;101614.75;;;42.54;33.04
51460;BME280;37534;39.772;2.718;2023-10-13T12:37:36;101642.09;;;42.23;33.40
51460;BME280;37534;39.772;2.718;2023-10-13T12:40:05;101608.94;;;41.72;33.51
51460;BME280;37534;39.772;2.718;2023-10-13T12:42:50;101588.06;;;42.09;33.81
51460;BME280;37534;39.772;2.718;2023-10-13T12:45:44;101623.47;;;43.22;31.63
51460;BME280;37534;39.772;2.718;2023-10-13T12:51:50;101614.63;;;43.27;30.97
51460;BME280;37534;39.772;2.718;2023-10-13T12:54:16;101575.56;;;43.16;30.81
51460;BME280;37534;39.772;2.718;2023-10-13T12:56:49;101572.94;;;42.98;30.49
51460;BME280;37534;39.772;2.718;2023-10-13T12:59:24;101589.41;;;42.61;30.25
51460;BME280;37534;39.772;2.718;2023-10-13T13:01:53;101598.31;;;41.70;31.91
51460;BME280;37534;39.772;2.718;2023-10-13T13:04:19;101571.91;;;40.72;32.75
51460;BME280;37534;39.772;2.718;2023-10-13T13:06:48;101565.19;;;41.31;32.35
51460;BME280;37534;39.772;2.718;2023-10-13T13:09:14;101582.44;;;42.23;31.46
51460;BME280;37534;39.772;2.718;2023-10-13T13:11:40;101584.44;;;42.58;30.17
51460;BME280;37534;39.772;2.718;2023-10-13T13:14:07;101568.88;;;41.74;30.64
51460;BME280;37534;39.772;2.718;2023-10-13T13:16:37;101580.16;;;42.50;30.54
51460;BME280;37534;39.772;2.718;2023-10-13T13:19:04;101559.47;;;41.76;31.19
51460;BME280;37534;39.772;2.718;2023-10-13T13:21:39;101571.97;;;40.26;32.44
51460;BME280;37534;39.772;2.718;2023-10-13T13:24:06;101563.56;;;38.97;34.71
51460;BME280;37534;39.772;2.718;2023-10-13T13:26:39;101569.16;;;37.03;38.15
51460;BME280;37534;39.772;2.718;2023-10-13T13:29:06;101526.09;;;36.16;39.85
51460;BME280;37534;39.772;2.718;2023-10-13T13:31:34;101506.53;;;35.56;40.81
51460;BME280;37534;39.772;2.718;2023-10-13T13:34:07;101563.63;;;35.50;41.29
51460;BME280;37534;39.772;2.718;2023-10-13T13:36:35;101570.19;;;35.10;42.46
51460;BME280;37534;39.772;2.718;2023-10-13T13:39:00;101559.88;;;34.29;44.96
51460;BME280;37534;39.772;2.718;2023-10-13T13:41:26;101544.91;;;33.31;47.73
51460;BME280;37534;39.772;2.718;2023-10-13T13:43:52;101557.13;;;32.84;50.44
51460;BME280;37534;39.772;2.718;2023-10-13T13:46:23;101559.34;;;32.38;53.54
51460;BME280;37534;39.772;2.718;2023-10-13T13:48:53;101545.56;;;31.74;60.66
51460;BME280;37534;39.772;2.718;2023-10-13T13:51:29;101546.16;;;31.15;65.79
51460;BME280;37534;39.772;2.718;2023-10-13T13:53:58;101540.06;;;31.05;68.86
51460;BME280;37534;39.772;2.718;2023-10-13T13:56:25;101539.59;;;30.56;71.85
51460;BME280;37534;39.772;2.718;2023-10-13T13:58:52;101526.59;;;30.35;74.15
51460;BME280;37534;39.772;2.718;2023-10-13T14:04:40;101550.34;;;30.82;77.21
51460;BME280;37534;39.772;2.718;2023-10-13T14:07:05;101553.69;;;30.84;78.85
51460;BME280;37534;39.772;2.718;2023-10-13T14:09:31;101496.19;;;31.17;76.18
51460;BME280;37534;39.772;2.718;2023-10-13T14:15:28;101528.22;;;31.70;72.68
51460;BME280;37534;39.772;2.718;2023-10-13T14:17:54;101527.22;;;31.26;74.54
51460;BME280;37534;39.772;2.718;2023-10-13T14:20:19;101578.63;;;31.37;75.54
51460;BME280;37534;39.772;2.718;2023-10-13T14:22:45;101507.22;;;30.32;80.23
51460;BME280;37534;39.772;2.718;2023-10-13T14:25:14;101530.16;;;30.43;83.03
51460;BME280;37534;39.772;2.718;2023-10-13T14:27:41;101532.56;;;31.00;83.02
51460;BME280;37534;39.772;2.718;2023-10-13T14:30:07;101517.44;;;31.09;79.37
51460;BME280;37534;39.772;2.718;2023-10-13T14:35:55;101545.03;;;31.00;80.52
51460;BME280;37534;39.772;2.718;2023-10-13T14:38:20;101510.84;;;30.77;82.57
51460;BME280;37534;39.772;2.718;2023-10-13T14:40:46;101511.88;;;31.46;81.82
51460;BME280;37534;39.772;2.718;2023-10-13T14:43:13;101511.72;;;32.17;76.03
51460;BME280;37534;39.772;2.718;2023-10-13T14:45:42;101534.75;;;33.18;71.30
51460;BME280;37534;39.772;2.718;2023-10-13T14:48:10;101543.31;;;34.25;64.84
51460;BME280;37534;39.772;2.718;2023-10-13T14:50:39;101478.19;;;34.48;61.04
51460;BME280;37534;39.772;2.718;2023-10-13T14:53:08;101496.56;;;35.12;57.66
51460;BME280;37534;39.772;2.718;2023-10-13T14:55:33;101504.78;;;35.49;57.18
51460;BME280;37534;39.772;2.718;2023-10-13T15:01:25;101513.56;;;34.90;56.04
51460;BME280;37534;39.772;2.718;2023-10-13T15:03:53;101487.91;;;34.18;58.19
51460;BME280;37534;39.772;2.718;2023-10-13T15:06:24;101507.66;;;33.85;59.55
51460;BME280;37534;39.772;2.718;2023-10-13T15:08:51;101536.22;;;33.29;61.86
51460;BME280;37534;39.772;2.718;2023-10-13T15:11:20;101549.28;;;32.74;64.96
51460;BME280;37534;39.772;2.718;2023-10-13T15:13:46;101485.47;;;31.61;68.68
51460;BME280;37534;39.772;2.718;2023-10-13T15:16:20;101514.75;;;31.27;68.79
51460;BME280;37534;39.772;2.718;2023-10-13T15:18:51;101540.31;;;31.38;69.24
51460;BME280;37534;39.772;2.718;2023-10-13T15:21:24;101537.91;;;31.79;68.17
51460;BME280;37534;39.772;2.718;2023-10-13T15:24:03;101549.38;;;32.48;67.48
51460;BME280;37534;39.772;2.718;2023-10-13T15:26:30;101515.50;;;32.57;62.73
51460;BME280;37534;39.772;2.718;2023-10-13T15:29:03;101470.94;;;32.82;59.00
51460;BME280;37534;39.772;2.718;2023-10-13T15:31:35;101469.06;;;32.42;58.75
51460;BME280;37534;39.772;2.718;2023-10-13T21:57:16;101471.03;;;16.53;100.00
51460;BME280;37534;39.772;2.718;2023-10-13T21:59:43;101505.09;;;16.71;100.00
51460;BME280;37534;39.772;2.718;2023-10-13T22:02:10;101488.13;;;16.61;100.00
51460;BME280;37534;39.772;2.718;2023-10-13T22:04:35;101459.31;;;16.43;100.00
51460;BME280;37534;39.772;2.718;2023-10-13T22:07:01;101457.47;;;16.45;100.00
51460;BME280;37534;39.772;2.718;2023-10-13T22:24:59;101451.03;;;16.32;100.00
51460;BME280;37534;39.772;2.718;2023-10-13T22:27:25;101537.00;;;17.00;100.00
51460;BME280;37534;39.772;2.718;2023-10-13T22:29:52;101497.69;;;16.82;100.00
51460;BME280;37534;39.772;2.718;2023-10-13T22:32:18;101509.63;;;16.89;100.00
51460;BME280;37534;39.772;2.718;2023-10-13T22:34:43;101445.41;;;16.43;100.00
51460;BME280;37534;39.772;2.718;2023-10-13T22:37:09;101479.78;;;16.75;100.00
51460;BME280;37534;39.772;2.718;2023-10-13T22:39:37;101491.03;;;16.75;100.00
51460;BME280;37534;39.772;2.718;2023-10-13T22:42:03;101497.38;;;16.91;100.00
51460;BME280;37534;39.772;2.718;2023-10-13T22:44:29;101433.38;;;16.40;100.00
51460;BME280;37534;39.772;2.718;2023-10-13T22:46:55;101447.66;;;16.52;100.00
51460;BME280;37534;39.772;2.718;2023-10-13T22:49:20;101496.06;;;16.80;100.00
51460;BME280;37534;39.772;2.718;2023-10-13T22:51:48;101478.94;;;16.74;100.00
51460;BME280;37534;39.772;2.718;2023-10-13T22:54:14;101467.34;;;16.81;100.00
51460;BME280;37534;39.772;2.718;2023-10-13T22:56:44;101420.75;;;16.51;100.00
51460;BME280;37534;39.772;2.718;2023-10-13T22:59:10;101448.75;;;16.68;100.00
51460;BME280;37534;39.772;2.718;2023-10-13T23:01:39;101483.19;;;16.99;100.00
51460;BME280;37534;39.772;2.718;2023-10-13T23:04:11;101469.19;;;16.79;100.00
51460;BME280;37534;39.772;2.718;2023-10-13T23:06:41;101509.72;;;17.08;100.00
51460;BME280;37534;39.772;2.718;2023-10-13T23:09:15;101415.19;;;16.39;100.00
51460;BME280;37534;39.772;2.718;2023-10-13T23:11:50;101427.28;;;16.40;100.00
51460;BME280;37534;39.772;2.718;2023-10-13T23:14:21;101513.13;;;16.88;100.00
51460;BME280;37534;39.772;2.718;2023-10-13T23:16:47;101416.56;;;16.25;100.00
51460;BME280;37534;39.772;2.718;2023-10-13T23:19:15;101427.06;;;16.24;100.00
51460;BME280;37534;39.772;2.718;2023-10-13T23:21:47;101412.50;;;16.18;100.00
51460;BME280;37534;39.772;2.718;2023-10-13T23:24:13;101413.28;;;16.20;100.00
51460;BME280;37534;39.772;2.718;2023-10-13T23:26:40;101406.75;;;16.32;100.00
51460;BME280;37534;39.772;2.718;2023-10-13T23:29:06;101431.44;;;16.45;100.00
51460;BME280;37534;39.772;2.718;2023-10-13T23:31:36;101442.81;;;16.43;100.00
51460;BME280;37534;39.772;2.718;2023-10-13T23:34:01;101400.41;;;16.17;100.00
51460;BME280;37534;39.772;2.718;2023-10-13T23:36:28;101417.22;;;16.08;100.00
51460;BME280;37534;39.772;2.718;2023-10-13T23:38:56;101468.91;;;16.41;100.00
51460;BME280;37534;39.772;2.718;2023-10-13T23:41:25;101398.06;;;16.09;100.00
51460;BME280;37534;39.772;2.718;2023-10-13T23:43:57;101418.78;;;16.12;100.00
51460;BME280;37534;39.772;2.718;2023-10-13T23:46:24;101437.91;;;16.35;100.00
51460;BME280;37534;39.772;2.718;2023-10-13T23:48:51;101417.69;;;16.18;100.00
51460;BME280;37534;39.772;2.718;2023-10-13T23:51:21;101420.50;;;16.13;100.00
51460;BME280;37534;39.772;2.718;2023-10-13T23:53:52;101409.06;;;16.18;100.00
51460;BME280;37534;39.772;2.718;2023-10-13T23:56:18;101471.47;;;16.65;100.00
51460;BME280;37534;39.772;2.718;2023-10-13T23:58:50;101514.38;;;16.78;100.00
